sensor_id;sensor_type;location;lat;lon;timestamp;P1;durP1;ratioP1;P2;durP2;ratioP2
52386;SDS011;38317;53.084;6.960;2022-07-24T00:01:34;1.50;;;0.90;;
52386;SDS011;38317;53.084;6.960;2022-07-24T00:04:03;2.47;;;0.85;;
52386;SDS011;38317;53.084;6.960;2022-07-24T00:06:29;1.20;;;0.85;;
52386;SDS011;38317;53.084;6.960;2022-07-24T00:08:55;2.03;;;0.77;;
52386;SDS011;38317;53.084;6.960;2022-07-24T00:11:21;1.20;;;0.80;;
52386;SDS011;38317;53.084;6.960;2022-07-24T00:13:47;1.38;;;0.95;;
52386;SDS011;38317;53.084;6.960;2022-07-24T00:16:13;1.85;;;1.17;;
52386;SDS011;38317;53.084;6.960;2022-07-24T00:18:38;1.13;;;0.85;;
52386;SDS011;38317;53.084;6.960;2022-07-24T00:21:04;1.83;;;1.00;;
52386;SDS011;38317;53.084;6.960;2022-07-24T00:23:30;1.63;;;0.90;;
52386;SDS011;38317;53.084;6.960;2022-07-24T00:25:56;1.30;;;1.02;;
52386;SDS011;38317;53.084;6.960;2022-07-24T00:28:22;2.30;;;1.20;;
52386;SDS011;38317;53.084;6.960;2022-07-24T00:30:48;1.13;;;1.00;;
52386;SDS011;38317;53.084;6.960;2022-07-24T00:33:14;3.25;;;1.33;;
52386;SDS011;38317;53.084;6.960;2022-07-24T00:35:40;2.03;;;1.10;;
52386;SDS011;38317;53.084;6.960;2022-07-24T00:38:06;2.08;;;1.20;;
52386;SDS011;38317;53.084;6.960;2022-07-24T00:40:32;2.70;;;1.30;;
52386;SDS011;38317;53.084;6.960;2022-07-24T00:42:58;1.65;;;1.20;;
52386;SDS011;38317;53.084;6.960;2022-07-24T00:45:24;3.53;;;1.58;;
52386;SDS011;38317;53.084;6.960;2022-07-24T00:47:50;2.15;;;1.30;;
52386;SDS011;38317;53.084;6.960;2022-07-24T00:50:17;2.13;;;1.35;;
52386;SDS011;38317;53.084;6.960;2022-07-24T00:52:43;4.15;;;1.48;;
52386;SDS011;38317;53.084;6.960;2022-07-24T00:55:10;2.20;;;1.23;;
52386;SDS011;38317;53.084;6.960;2022-07-24T00:57:36;1.77;;;1.20;;
52386;SDS011;38317;53.084;6.960;2022-07-24T01:00:04;2.42;;;1.20;;
52386;SDS011;38317;53.084;6.960;2022-07-24T01:02:31;2.58;;;1.48;;
52386;SDS011;38317;53.084;6.960;2022-07-24T01:04:57;1.60;;;1.25;;
52386;SDS011;38317;53.084;6.960;2022-07-24T01:07:23;1.67;;;1.30;;
52386;SDS011;38317;53.084;6.960;2022-07-24T01:09:49;2.50;;;1.23;;
52386;SDS011;38317;53.084;6.960;2022-07-24T01:12:16;2.08;;;1.35;;
52386;SDS011;38317;53.084;6.960;2022-07-24T01:14:43;2.47;;;1.55;;
52386;SDS011;38317;53.084;6.960;2022-07-24T01:17:09;3.05;;;1.55;;
52386;SDS011;38317;53.084;6.960;2022-07-24T01:19:35;2.65;;;1.33;;
52386;SDS011;38317;53.084;6.960;2022-07-24T01:22:01;3.40;;;1.70;;
52386;SDS011;38317;53.084;6.960;2022-07-24T01:24:27;1.75;;;1.15;;
52386;SDS011;38317;53.084;6.960;2022-07-24T01:26:52;2.58;;;1.42;;
52386;SDS011;38317;53.084;6.960;2022-07-24T01:29:18;1.70;;;1.40;;
52386;SDS011;38317;53.084;6.960;2022-07-24T01:31:44;2.42;;;1.40;;
52386;SDS011;38317;53.084;6.960;2022-07-24T01:34:10;2.50;;;1.38;;
52386;SDS011;38317;53.084;6.960;2022-07-24T01:36:35;2.55;;;1.38;;
52386;SDS011;38317;53.084;6.960;2022-07-24T01:39:01;3.22;;;1.70;;
52386;SDS011;38317;53.084;6.960;2022-07-24T01:41:27;2.20;;;1.40;;
52386;SDS011;38317;53.084;6.960;2022-07-24T01:43:53;1.85;;;1.38;;
52386;SDS011;38317;53.084;6.960;2022-07-24T01:46:19;3.05;;;1.73;;
52386;SDS011;38317;53.084;6.960;2022-07-24T01:48:44;2.58;;;1.40;;
52386;SDS011;38317;53.084;6.960;2022-07-24T01:51:10;1.85;;;1.25;;
52386;SDS011;38317;53.084;6.960;2022-07-24T01:53:36;2.53;;;1.50;;
52386;SDS011;38317;53.084;6.960;2022-07-24T01:56:02;1.90;;;1.38;;
52386;SDS011;38317;53.084;6.960;2022-07-24T01:58:28;4.47;;;2.10;;
52386;SDS011;38317;53.084;6.960;2022-07-24T02:00:54;2.00;;;1.40;;
52386;SDS011;38317;53.084;6.960;2022-07-24T02:03:20;2.50;;;1.60;;
52386;SDS011;38317;53.084;6.960;2022-07-24T02:05:46;2.63;;;1.58;;
52386;SDS011;38317;53.084;6.960;2022-07-24T02:08:12;2.05;;;1.50;;
52386;SDS011;38317;53.084;6.960;2022-07-24T02:10:38;2.08;;;1.27;;
52386;SDS011;38317;53.084;6.960;2022-07-24T02:13:05;3.35;;;1.70;;
52386;SDS011;38317;53.084;6.960;2022-07-24T02:15:31;2.20;;;1.50;;
52386;SDS011;38317;53.084;6.960;2022-07-24T02:17:59;2.85;;;1.52;;
52386;SDS011;38317;53.084;6.960;2022-07-24T02:20:26;2.88;;;1.73;;
52386;SDS011;38317;53.084;6.960;2022-07-24T02:22:52;2.70;;;1.70;;
52386;SDS011;38317;53.084;6.960;2022-07-24T02:25:18;3.15;;;1.90;;
52386;SDS011;38317;53.084;6.960;2022-07-24T02:27:44;2.85;;;1.95;;
52386;SDS011;38317;53.084;6.960;2022-07-24T02:30:14;2.30;;;1.55;;
52386;SDS011;38317;53.084;6.960;2022-07-24T02:32:42;3.20;;;1.85;;
52386;SDS011;38317;53.084;6.960;2022-07-24T02:35:08;3.10;;;2.08;;
52386;SDS011;38317;53.084;6.960;2022-07-24T02:37:35;3.05;;;2.00;;
52386;SDS011;38317;53.084;6.960;2022-07-24T02:40:02;2.90;;;1.83;;
52386;SDS011;38317;53.084;6.960;2022-07-24T02:42:29;3.22;;;1.85;;
52386;SDS011;38317;53.084;6.960;2022-07-24T02:44:54;3.03;;;2.00;;
52386;SDS011;38317;53.084;6.960;2022-07-24T02:47:20;2.97;;;1.90;;
52386;SDS011;38317;53.084;6.960;2022-07-24T02:49:46;3.05;;;1.85;;
52386;SDS011;38317;53.084;6.960;2022-07-24T02:52:11;3.15;;;2.10;;
52386;SDS011;38317;53.084;6.960;2022-07-24T02:54:37;4.03;;;1.98;;
52386;SDS011;38317;53.084;6.960;2022-07-24T02:57:03;4.55;;;2.28;;
52386;SDS011;38317;53.084;6.960;2022-07-24T02:59:28;2.95;;;2.03;;
52386;SDS011;38317;53.084;6.960;2022-07-24T03:01:54;2.85;;;1.90;;
52386;SDS011;38317;53.084;6.960;2022-07-24T03:04:20;3.17;;;2.03;;
52386;SDS011;38317;53.084;6.960;2022-07-24T03:06:46;4.00;;;2.38;;
52386;SDS011;38317;53.084;6.960;2022-07-24T03:09:11;3.05;;;1.80;;
52386;SDS011;38317;53.084;6.960;2022-07-24T03:11:40;3.88;;;2.15;;
52386;SDS011;38317;53.084;6.960;2022-07-24T03:14:06;3.75;;;2.25;;
52386;SDS011;38317;53.084;6.960;2022-07-24T03:16:31;2.95;;;2.03;;
52386;SDS011;38317;53.084;6.960;2022-07-24T03:18:57;3.65;;;1.92;;
52386;SDS011;38317;53.084;6.960;2022-07-24T03:21:23;2.85;;;2.00;;
52386;SDS011;38317;53.084;6.960;2022-07-24T03:23:49;2.90;;;1.88;;
52386;SDS011;38317;53.084;6.960;2022-07-24T03:26:14;3.05;;;1.92;;
52386;SDS011;38317;53.084;6.960;2022-07-24T03:28:40;3.85;;;2.00;;
52386;SDS011;38317;53.084;6.960;2022-07-24T03:31:06;3.13;;;2.00;;
52386;SDS011;38317;53.084;6.960;2022-07-24T03:33:32;2.90;;;1.85;;
52386;SDS011;38317;53.084;6.960;2022-07-24T03:35:59;2.72;;;1.90;;
52386;SDS011;38317;53.084;6.960;2022-07-24T03:38:25;3.15;;;1.98;;
52386;SDS011;38317;53.084;6.960;2022-07-24T03:40:51;2.63;;;1.80;;
52386;SDS011;38317;53.084;6.960;2022-07-24T03:43:17;3.00;;;1.80;;
52386;SDS011;38317;53.084;6.960;2022-07-24T03:45:42;6.07;;;1.90;;
52386;SDS011;38317;53.084;6.960;2022-07-24T03:48:08;2.80;;;1.88;;
52386;SDS011;38317;53.084;6.960;2022-07-24T03:50:34;3.55;;;2.28;;
52386;SDS011;38317;53.084;6.960;2022-07-24T03:53:00;3.80;;;2.17;;
52386;SDS011;38317;53.084;6.960;2022-07-24T03:55:26;3.70;;;2.17;;
52386;SDS011;38317;53.084;6.960;2022-07-24T03:57:52;3.78;;;2.17;;
52386;SDS011;38317;53.084;6.960;2022-07-24T04:00:17;3.45;;;2.08;;
52386;SDS011;38317;53.084;6.960;2022-07-24T04:02:43;3.83;;;2.35;;
52386;SDS011;38317;53.084;6.960;2022-07-24T04:05:09;4.55;;;2.42;;
52386;SDS011;38317;53.084;6.960;2022-07-24T04:07:38;4.00;;;2.70;;
52386;SDS011;38317;53.084;6.960;2022-07-24T04:10:04;3.42;;;2.40;;
52386;SDS011;38317;53.084;6.960;2022-07-24T04:12:31;3.10;;;2.17;;
52386;SDS011;38317;53.084;6.960;2022-07-24T04:14:57;3.92;;;2.28;;
52386;SDS011;38317;53.084;6.960;2022-07-24T04:17:23;4.25;;;2.30;;
52386;SDS011;38317;53.084;6.960;2022-07-24T04:19:48;3.17;;;2.28;;
52386;SDS011;38317;53.084;6.960;2022-07-24T04:22:14;5.05;;;2.30;;
52386;SDS011;38317;53.084;6.960;2022-07-24T04:24:40;3.60;;;2.42;;
52386;SDS011;38317;53.084;6.960;2022-07-24T04:27:06;3.53;;;2.25;;
52386;SDS011;38317;53.084;6.960;2022-07-24T04:29:32;3.35;;;2.25;;
52386;SDS011;38317;53.084;6.960;2022-07-24T04:31:57;4.72;;;2.25;;
52386;SDS011;38317;53.084;6.960;2022-07-24T04:34:24;4.50;;;2.78;;
52386;SDS011;38317;53.084;6.960;2022-07-24T04:36:49;3.65;;;2.10;;
52386;SDS011;38317;53.084;6.960;2022-07-24T04:39:15;5.28;;;2.45;;
52386;SDS011;38317;53.084;6.960;2022-07-24T04:41:41;4.32;;;2.20;;
52386;SDS011;38317;53.084;6.960;2022-07-24T04:44:07;3.78;;;2.25;;
52386;SDS011;38317;53.084;6.960;2022-07-24T04:46:32;3.88;;;2.60;;
52386;SDS011;38317;53.084;6.960;2022-07-24T04:48:58;4.93;;;2.60;;
52386;SDS011;38317;53.084;6.960;2022-07-24T04:51:25;3.83;;;2.42;;
52386;SDS011;38317;53.084;6.960;2022-07-24T04:53:51;4.30;;;2.40;;
52386;SDS011;38317;53.084;6.960;2022-07-24T04:56:20;3.88;;;2.80;;
52386;SDS011;38317;53.084;6.960;2022-07-24T04:58:46;3.33;;;2.40;;
52386;SDS011;38317;53.084;6.960;2022-07-24T05:01:12;3.25;;;2.28;;
52386;SDS011;38317;53.084;6.960;2022-07-24T05:03:38;5.22;;;2.38;;
52386;SDS011;38317;53.084;6.960;2022-07-24T05:06:04;4.15;;;2.35;;
52386;SDS011;38317;53.084;6.960;2022-07-24T05:08:30;3.85;;;2.10;;
52386;SDS011;38317;53.084;6.960;2022-07-24T05:10:56;3.63;;;2.30;;
52386;SDS011;38317;53.084;6.960;2022-07-24T05:13:22;4.88;;;2.40;;
52386;SDS011;38317;53.084;6.960;2022-07-24T05:15:48;2.88;;;2.08;;
52386;SDS011;38317;53.084;6.960;2022-07-24T05:18:14;4.03;;;2.35;;
52386;SDS011;38317;53.084;6.960;2022-07-24T05:20:39;3.45;;;2.50;;
52386;SDS011;38317;53.084;6.960;2022-07-24T05:23:05;2.88;;;1.95;;
52386;SDS011;38317;53.084;6.960;2022-07-24T05:25:31;4.05;;;2.20;;
52386;SDS011;38317;53.084;6.960;2022-07-24T05:27:57;3.72;;;2.45;;
52386;SDS011;38317;53.084;6.960;2022-07-24T05:30:23;3.95;;;2.50;;
52386;SDS011;38317;53.084;6.960;2022-07-24T05:32:48;5.28;;;2.67;;
52386;SDS011;38317;53.084;6.960;2022-07-24T05:35:14;4.07;;;2.70;;
52386;SDS011;38317;53.084;6.960;2022-07-24T05:37:40;3.67;;;2.22;;
52386;SDS011;38317;53.084;6.960;2022-07-24T05:40:06;4.63;;;2.47;;
52386;SDS011;38317;53.084;6.960;2022-07-24T05:42:32;3.90;;;2.67;;
52386;SDS011;38317;53.084;6.960;2022-07-24T05:44:58;4.15;;;2.63;;
52386;SDS011;38317;53.084;6.960;2022-07-24T05:47:23;4.85;;;2.53;;
52386;SDS011;38317;53.084;6.960;2022-07-24T05:49:49;5.20;;;2.80;;
52386;SDS011;38317;53.084;6.960;2022-07-24T05:52:15;4.13;;;2.78;;
52386;SDS011;38317;53.084;6.960;2022-07-24T05:54:40;4.35;;;2.92;;
52386;SDS011;38317;53.084;6.960;2022-07-24T05:57:06;3.90;;;2.65;;
52386;SDS011;38317;53.084;6.960;2022-07-24T05:59:32;4.10;;;2.67;;
52386;SDS011;38317;53.084;6.960;2022-07-24T06:01:58;5.32;;;3.00;;
52386;SDS011;38317;53.084;6.960;2022-07-24T06:04:25;4.95;;;3.00;;
52386;SDS011;38317;53.084;6.960;2022-07-24T06:06:51;3.95;;;2.70;;
52386;SDS011;38317;53.084;6.960;2022-07-24T06:09:16;5.30;;;3.20;;
52386;SDS011;38317;53.084;6.960;2022-07-24T06:11:42;4.68;;;3.30;;
52386;SDS011;38317;53.084;6.960;2022-07-24T06:14:08;4.75;;;3.47;;
52386;SDS011;38317;53.084;6.960;2022-07-24T06:16:33;4.85;;;3.20;;
52386;SDS011;38317;53.084;6.960;2022-07-24T06:18:59;5.88;;;3.17;;
52386;SDS011;38317;53.084;6.960;2022-07-24T06:21:26;4.22;;;2.63;;
52386;SDS011;38317;53.084;6.960;2022-07-24T06:23:52;4.72;;;3.10;;
52386;SDS011;38317;53.084;6.960;2022-07-24T06:26:17;4.20;;;2.90;;
52386;SDS011;38317;53.084;6.960;2022-07-24T06:28:43;5.13;;;3.17;;
52386;SDS011;38317;53.084;6.960;2022-07-24T06:31:09;4.75;;;3.15;;
52386;SDS011;38317;53.084;6.960;2022-07-24T06:33:34;4.50;;;2.88;;
52386;SDS011;38317;53.084;6.960;2022-07-24T06:36:00;4.68;;;3.10;;
52386;SDS011;38317;53.084;6.960;2022-07-24T06:38:26;6.22;;;3.85;;
52386;SDS011;38317;53.084;6.960;2022-07-24T06:40:52;6.55;;;3.60;;
52386;SDS011;38317;53.084;6.960;2022-07-24T06:43:17;6.38;;;3.55;;
52386;SDS011;38317;53.084;6.960;2022-07-24T06:45:43;8.13;;;4.38;;
52386;SDS011;38317;53.084;6.960;2022-07-24T06:48:09;7.03;;;4.13;;
52386;SDS011;38317;53.084;6.960;2022-07-24T06:50:35;6.68;;;3.97;;
52386;SDS011;38317;53.084;6.960;2022-07-24T06:53:00;6.55;;;4.00;;
52386;SDS011;38317;53.084;6.960;2022-07-24T06:55:26;7.53;;;4.60;;
52386;SDS011;38317;53.084;6.960;2022-07-24T06:57:52;8.40;;;4.60;;
52386;SDS011;38317;53.084;6.960;2022-07-24T07:00:18;6.72;;;4.13;;
52386;SDS011;38317;53.084;6.960;2022-07-24T07:02:44;6.28;;;3.78;;
52386;SDS011;38317;53.084;6.960;2022-07-24T07:05:11;7.93;;;4.95;;
52386;SDS011;38317;53.084;6.960;2022-07-24T07:07:37;7.55;;;4.97;;
52386;SDS011;38317;53.084;6.960;2022-07-24T07:10:03;6.55;;;3.85;;
52386;SDS011;38317;53.084;6.960;2022-07-24T07:12:30;6.38;;;4.53;;
52386;SDS011;38317;53.084;6.960;2022-07-24T07:14:56;7.72;;;4.45;;
52386;SDS011;38317;53.084;6.960;2022-07-24T07:17:23;6.55;;;4.18;;
52386;SDS011;38317;53.084;6.960;2022-07-24T07:19:49;6.78;;;4.07;;
52386;SDS011;38317;53.084;6.960;2022-07-24T07:22:15;8.27;;;4.70;;
52386;SDS011;38317;53.084;6.960;2022-07-24T07:24:41;8.00;;;4.40;;
52386;SDS011;38317;53.084;6.960;2022-07-24T07:27:06;7.95;;;4.40;;
52386;SDS011;38317;53.084;6.960;2022-07-24T07:29:32;9.85;;;4.82;;
52386;SDS011;38317;53.084;6.960;2022-07-24T07:31:58;8.63;;;5.50;;
52386;SDS011;38317;53.084;6.960;2022-07-24T07:34:23;8.52;;;4.88;;
52386;SDS011;38317;53.084;6.960;2022-07-24T07:36:49;8.88;;;5.28;;
52386;SDS011;38317;53.084;6.960;2022-07-24T07:39:15;9.10;;;5.60;;
52386;SDS011;38317;53.084;6.960;2022-07-24T07:41:41;8.93;;;5.68;;
52386;SDS011;38317;53.084;6.960;2022-07-24T07:44:06;9.80;;;5.72;;
52386;SDS011;38317;53.084;6.960;2022-07-24T07:46:32;7.82;;;4.97;;
52386;SDS011;38317;53.084;6.960;2022-07-24T07:48:58;9.25;;;5.63;;
52386;SDS011;38317;53.084;6.960;2022-07-24T07:51:24;8.50;;;5.88;;
52386;SDS011;38317;53.084;6.960;2022-07-24T07:53:50;8.02;;;5.55;;
52386;SDS011;38317;53.084;6.960;2022-07-24T07:56:16;12.35;;;6.28;;
52386;SDS011;38317;53.084;6.960;2022-07-24T07:58:41;10.07;;;5.88;;
52386;SDS011;38317;53.084;6.960;2022-07-24T08:01:07;10.00;;;6.30;;
52386;SDS011;38317;53.084;6.960;2022-07-24T08:03:33;11.43;;;7.28;;
52386;SDS011;38317;53.084;6.960;2022-07-24T08:05:59;11.25;;;6.43;;
52386;SDS011;38317;53.084;6.960;2022-07-24T08:08:26;11.20;;;5.45;;
52386;SDS011;38317;53.084;6.960;2022-07-24T08:10:52;10.27;;;6.53;;
52386;SDS011;38317;53.084;6.960;2022-07-24T08:13:18;9.30;;;6.25;;
52386;SDS011;38317;53.084;6.960;2022-07-24T08:15:44;9.45;;;5.88;;
52386;SDS011;38317;53.084;6.960;2022-07-24T08:18:10;10.20;;;7.13;;
52386;SDS011;38317;53.084;6.960;2022-07-24T08:20:36;10.45;;;6.45;;
52386;SDS011;38317;53.084;6.960;2022-07-24T08:23:02;8.75;;;5.00;;
52386;SDS011;38317;53.084;6.960;2022-07-24T08:25:28;10.02;;;6.20;;
52386;SDS011;38317;53.084;6.960;2022-07-24T08:27:53;8.15;;;5.35;;
52386;SDS011;38317;53.084;6.960;2022-07-24T08:30:19;12.15;;;7.05;;
52386;SDS011;38317;53.084;6.960;2022-07-24T08:32:47;10.52;;;5.88;;
52386;SDS011;38317;53.084;6.960;2022-07-24T08:35:12;11.27;;;6.47;;
52386;SDS011;38317;53.084;6.960;2022-07-24T08:37:40;9.32;;;5.68;;
52386;SDS011;38317;53.084;6.960;2022-07-24T08:40:07;10.07;;;5.05;;
52386;SDS011;38317;53.084;6.960;2022-07-24T08:42:35;7.63;;;4.82;;
52386;SDS011;38317;53.084;6.960;2022-07-24T08:45:03;9.45;;;4.88;;
52386;SDS011;38317;53.084;6.960;2022-07-24T08:47:30;6.35;;;3.92;;
52386;SDS011;38317;53.084;6.960;2022-07-24T08:49:57;6.15;;;3.45;;
52386;SDS011;38317;53.084;6.960;2022-07-24T08:52:24;6.07;;;2.70;;
52386;SDS011;38317;53.084;6.960;2022-07-24T08:54:51;7.57;;;3.50;;
52386;SDS011;38317;53.084;6.960;2022-07-24T08:57:18;6.75;;;3.47;;
52386;SDS011;38317;53.084;6.960;2022-07-24T08:59:44;6.30;;;3.38;;
52386;SDS011;38317;53.084;6.960;2022-07-24T09:02:10;4.63;;;2.60;;
52386;SDS011;38317;53.084;6.960;2022-07-24T09:04:43;8.52;;;3.08;;
52386;SDS011;38317;53.084;6.960;2022-07-24T09:07:15;4.63;;;2.33;;
52386;SDS011;38317;53.084;6.960;2022-07-24T09:09:42;4.05;;;2.38;;
52386;SDS011;38317;53.084;6.960;2022-07-24T09:12:10;4.63;;;2.50;;
52386;SDS011;38317;53.084;6.960;2022-07-24T09:14:39;4.47;;;2.55;;
52386;SDS011;38317;53.084;6.960;2022-07-24T09:17:07;3.67;;;2.10;;
52386;SDS011;38317;53.084;6.960;2022-07-24T09:22:42;4.90;;;1.90;;
52386;SDS011;38317;53.084;6.960;2022-07-24T09:25:08;2.97;;;1.70;;
52386;SDS011;38317;53.084;6.960;2022-07-24T09:27:55;2.72;;;1.65;;
52386;SDS011;38317;53.084;6.960;2022-07-24T09:30:27;2.40;;;1.38;;
52386;SDS011;38317;53.084;6.960;2022-07-24T09:33:05;2.20;;;1.40;;
52386;SDS011;38317;53.084;6.960;2022-07-24T09:35:36;3.70;;;1.40;;
52386;SDS011;38317;53.084;6.960;2022-07-24T09:38:12;2.08;;;1.48;;
52386;SDS011;38317;53.084;6.960;2022-07-24T09:40:41;2.63;;;1.70;;
52386;SDS011;38317;53.084;6.960;2022-07-24T09:46:01;2.50;;;1.25;;
52386;SDS011;38317;53.084;6.960;2022-07-24T09:51:02;2.67;;;1.63;;
52386;SDS011;38317;53.084;6.960;2022-07-24T09:53:35;2.65;;;1.35;;
52386;SDS011;38317;53.084;6.960;2022-07-24T09:58:31;2.33;;;1.27;;
52386;SDS011;38317;53.084;6.960;2022-07-24T10:00:59;3.45;;;1.45;;
52386;SDS011;38317;53.084;6.960;2022-07-24T10:03:29;2.50;;;1.40;;
52386;SDS011;38317;53.084;6.960;2022-07-24T10:06:01;2.33;;;1.50;;
52386;SDS011;38317;53.084;6.960;2022-07-24T10:08:29;2.10;;;1.52;;
52386;SDS011;38317;53.084;6.960;2022-07-24T10:10:59;2.22;;;1.35;;
52386;SDS011;38317;53.084;6.960;2022-07-24T10:13:26;2.63;;;1.60;;
52386;SDS011;38317;53.084;6.960;2022-07-24T10:19:10;2.45;;;1.40;;
52386;SDS011;38317;53.084;6.960;2022-07-24T10:21:18;2.42;;;1.30;;
52386;SDS011;38317;53.084;6.960;2022-07-24T10:23:55;1.90;;;1.25;;
52386;SDS011;38317;53.084;6.960;2022-07-24T10:26:34;2.72;;;1.30;;
52386;SDS011;38317;53.084;6.960;2022-07-24T10:31:36;3.35;;;1.40;;
52386;SDS011;38317;53.084;6.960;2022-07-24T10:34:05;3.35;;;1.20;;
52386;SDS011;38317;53.084;6.960;2022-07-24T10:36:39;2.72;;;1.13;;
52386;SDS011;38317;53.084;6.960;2022-07-24T10:39:13;1.50;;;1.00;;
52386;SDS011;38317;53.084;6.960;2022-07-24T10:42:00;1.80;;;1.20;;
52386;SDS011;38317;53.084;6.960;2022-07-24T10:44:27;2.35;;;1.15;;
52386;SDS011;38317;53.084;6.960;2022-07-24T10:49:47;3.15;;;1.65;;
52386;SDS011;38317;53.084;6.960;2022-07-24T10:52:28;2.90;;;1.25;;
52386;SDS011;38317;53.084;6.960;2022-07-24T10:58:16;7.20;;;1.30;;
52386;SDS011;38317;53.084;6.960;2022-07-24T11:00:46;2.08;;;1.23;;
52386;SDS011;38317;53.084;6.960;2022-07-24T11:06:11;3.92;;;1.30;;
52386;SDS011;38317;53.084;6.960;2022-07-24T11:08:41;3.03;;;1.30;;
52386;SDS011;38317;53.084;6.960;2022-07-24T11:13:53;1.40;;;1.10;;
52386;SDS011;38317;53.084;6.960;2022-07-24T11:16:23;3.30;;;1.23;;
52386;SDS011;38317;53.084;6.960;2022-07-24T11:26:50;2.00;;;1.02;;
52386;SDS011;38317;53.084;6.960;2022-07-24T11:31:49;2.92;;;1.40;;
52386;SDS011;38317;53.084;6.960;2022-07-24T11:34:16;3.13;;;1.10;;
52386;SDS011;38317;53.084;6.960;2022-07-24T11:36:46;2.67;;;1.27;;
52386;SDS011;38317;53.084;6.960;2022-07-24T11:39:14;1.77;;;0.80;;
52386;SDS011;38317;53.084;6.960;2022-07-24T11:41:47;2.80;;;1.30;;
52386;SDS011;38317;53.084;6.960;2022-07-24T11:44:21;2.55;;;1.20;;
52386;SDS011;38317;53.084;6.960;2022-07-24T11:46:54;3.58;;;1.20;;
52386;SDS011;38317;53.084;6.960;2022-07-24T11:49:22;1.95;;;1.10;;
52386;SDS011;38317;53.084;6.960;2022-07-24T11:51:50;1.95;;;1.13;;
52386;SDS011;38317;53.084;6.960;2022-07-24T11:54:27;1.35;;;0.90;;
52386;SDS011;38317;53.084;6.960;2022-07-24T11:56:54;2.08;;;1.30;;
52386;SDS011;38317;53.084;6.960;2022-07-24T11:59:25;2.85;;;1.27;;
52386;SDS011;38317;53.084;6.960;2022-07-24T12:04:29;3.95;;;1.60;;
52386;SDS011;38317;53.084;6.960;2022-07-24T12:06:56;2.60;;;1.30;;
52386;SDS011;38317;53.084;6.960;2022-07-24T12:09:22;2.30;;;1.08;;
52386;SDS011;38317;53.084;6.960;2022-07-24T12:11:48;1.50;;;1.05;;
52386;SDS011;38317;53.084;6.960;2022-07-24T12:14:14;3.17;;;1.40;;
52386;SDS011;38317;53.084;6.960;2022-07-24T12:16:44;1.73;;;1.23;;
52386;SDS011;38317;53.084;6.960;2022-07-24T12:19:18;2.15;;;1.23;;
52386;SDS011;38317;53.084;6.960;2022-07-24T12:21:46;5.82;;;1.35;;
52386;SDS011;38317;53.084;6.960;2022-07-24T12:24:13;1.70;;;0.93;;
52386;SDS011;38317;53.084;6.960;2022-07-24T12:26:58;1.73;;;1.10;;
52386;SDS011;38317;53.084;6.960;2022-07-24T12:29:25;2.90;;;1.30;;
52386;SDS011;38317;53.084;6.960;2022-07-24T12:31:53;2.17;;;1.23;;
52386;SDS011;38317;53.084;6.960;2022-07-24T12:34:42;2.42;;;1.30;;
52386;SDS011;38317;53.084;6.960;2022-07-24T12:37:19;3.05;;;1.20;;
52386;SDS011;38317;53.084;6.960;2022-07-24T12:39:50;2.53;;;1.27;;
52386;SDS011;38317;53.084;6.960;2022-07-24T12:42:17;2.17;;;1.10;;
52386;SDS011;38317;53.084;6.960;2022-07-24T12:45:10;1.83;;;0.90;;
52386;SDS011;38317;53.084;6.960;2022-07-24T12:53:27;2.53;;;1.10;;
52386;SDS011;38317;53.084;6.960;2022-07-24T12:56:04;3.40;;;1.35;;
52386;SDS011;38317;53.084;6.960;2022-07-24T12:58:50;2.65;;;1.00;;
52386;SDS011;38317;53.084;6.960;2022-07-24T13:01:24;4.13;;;1.10;;
52386;SDS011;38317;53.084;6.960;2022-07-24T13:03:53;1.98;;;1.27;;
52386;SDS011;38317;53.084;6.960;2022-07-24T13:06:39;3.13;;;1.50;;
52386;SDS011;38317;53.084;6.960;2022-07-24T13:09:07;2.33;;;1.20;;
52386;SDS011;38317;53.084;6.960;2022-07-24T13:11:36;2.60;;;1.17;;
52386;SDS011;38317;53.084;6.960;2022-07-24T13:14:03;1.88;;;1.20;;
52386;SDS011;38317;53.084;6.960;2022-07-24T13:16:31;3.65;;;1.10;;
52386;SDS011;38317;53.084;6.960;2022-07-24T13:18:59;2.55;;;1.20;;
52386;SDS011;38317;53.084;6.960;2022-07-24T13:21:26;2.72;;;1.30;;
52386;SDS011;38317;53.084;6.960;2022-07-24T13:23:52;2.30;;;1.13;;
52386;SDS011;38317;53.084;6.960;2022-07-24T13:26:18;2.20;;;1.20;;
52386;SDS011;38317;53.084;6.960;2022-07-24T13:28:44;2.25;;;1.40;;
52386;SDS011;38317;53.084;6.960;2022-07-24T13:31:11;2.78;;;1.45;;
52386;SDS011;38317;53.084;6.960;2022-07-24T13:33:36;2.90;;;1.30;;
52386;SDS011;38317;53.084;6.960;2022-07-24T13:36:03;2.70;;;1.40;;
52386;SDS011;38317;53.084;6.960;2022-07-24T13:38:29;2.22;;;1.27;;
52386;SDS011;38317;53.084;6.960;2022-07-24T13:40:55;2.08;;;1.35;;
52386;SDS011;38317;53.084;6.960;2022-07-24T13:43:21;3.45;;;1.58;;
52386;SDS011;38317;53.084;6.960;2022-07-24T13:45:47;2.40;;;1.10;;
52386;SDS011;38317;53.084;6.960;2022-07-24T13:48:13;2.45;;;1.40;;
52386;SDS011;38317;53.084;6.960;2022-07-24T13:50:39;2.58;;;1.23;;
52386;SDS011;38317;53.084;6.960;2022-07-24T13:53:04;1.90;;;1.10;;
52386;SDS011;38317;53.084;6.960;2022-07-24T13:55:31;1.45;;;0.95;;
52386;SDS011;38317;53.084;6.960;2022-07-24T13:57:57;2.33;;;1.20;;
52386;SDS011;38317;53.084;6.960;2022-07-24T14:00:23;1.55;;;1.10;;
52386;SDS011;38317;53.084;6.960;2022-07-24T14:02:50;2.60;;;1.20;;
52386;SDS011;38317;53.084;6.960;2022-07-24T14:05:26;2.42;;;1.10;;
52386;SDS011;38317;53.084;6.960;2022-07-24T14:07:52;2.25;;;1.35;;
52386;SDS011;38317;53.084;6.960;2022-07-24T14:10:19;2.10;;;1.10;;
52386;SDS011;38317;53.084;6.960;2022-07-24T14:12:45;3.10;;;1.27;;
52386;SDS011;38317;53.084;6.960;2022-07-24T14:15:11;1.95;;;1.13;;
52386;SDS011;38317;53.084;6.960;2022-07-24T14:17:38;2.05;;;1.30;;
52386;SDS011;38317;53.084;6.960;2022-07-24T14:20:05;1.85;;;1.20;;
52386;SDS011;38317;53.084;6.960;2022-07-24T14:22:33;2.08;;;1.30;;
52386;SDS011;38317;53.084;6.960;2022-07-24T14:24:59;2.45;;;1.20;;
52386;SDS011;38317;53.084;6.960;2022-07-24T14:27:26;1.90;;;1.20;;
52386;SDS011;38317;53.084;6.960;2022-07-24T14:29:53;4.85;;;1.10;;
52386;SDS011;38317;53.084;6.960;2022-07-24T14:32:19;2.13;;;1.20;;
52386;SDS011;38317;53.084;6.960;2022-07-24T14:34:45;1.90;;;1.10;;
52386;SDS011;38317;53.084;6.960;2022-07-24T14:37:11;1.83;;;1.02;;
52386;SDS011;38317;53.084;6.960;2022-07-24T14:39:37;2.60;;;1.30;;
52386;SDS011;38317;53.084;6.960;2022-07-24T14:42:03;2.80;;;0.80;;
52386;SDS011;38317;53.084;6.960;2022-07-24T14:44:29;4.43;;;1.50;;
52386;SDS011;38317;53.084;6.960;2022-07-24T14:46:55;1.80;;;1.13;;
52386;SDS011;38317;53.084;6.960;2022-07-24T14:49:20;3.08;;;1.30;;
52386;SDS011;38317;53.084;6.960;2022-07-24T14:51:46;2.55;;;1.42;;
52386;SDS011;38317;53.084;6.960;2022-07-24T14:54:12;2.33;;;1.38;;
52386;SDS011;38317;53.084;6.960;2022-07-24T14:56:38;2.10;;;1.20;;
52386;SDS011;38317;53.084;6.960;2022-07-24T14:59:05;1.30;;;0.90;;
52386;SDS011;38317;53.084;6.960;2022-07-24T15:01:32;1.35;;;1.00;;
52386;SDS011;38317;53.084;6.960;2022-07-24T15:03:58;2.50;;;0.98;;
52386;SDS011;38317;53.084;6.960;2022-07-24T15:06:26;1.52;;;0.98;;
52386;SDS011;38317;53.084;6.960;2022-07-24T15:08:53;1.95;;;1.20;;
52386;SDS011;38317;53.084;6.960;2022-07-24T15:11:19;2.08;;;1.20;;
52386;SDS011;38317;53.084;6.960;2022-07-24T15:13:49;1.70;;;1.20;;
52386;SDS011;38317;53.084;6.960;2022-07-24T15:16:15;2.60;;;1.40;;
52386;SDS011;38317;53.084;6.960;2022-07-24T15:18:41;1.73;;;1.08;;
52386;SDS011;38317;53.084;6.960;2022-07-24T15:21:07;1.50;;;0.95;;
52386;SDS011;38317;53.084;6.960;2022-07-24T15:23:33;2.88;;;1.30;;
52386;SDS011;38317;53.084;6.960;2022-07-24T15:25:59;2.13;;;1.23;;
52386;SDS011;38317;53.084;6.960;2022-07-24T15:28:25;1.80;;;1.10;;
52386;SDS011;38317;53.084;6.960;2022-07-24T15:30:51;2.17;;;1.23;;
52386;SDS011;38317;53.084;6.960;2022-07-24T15:33:17;2.28;;;1.20;;
52386;SDS011;38317;53.084;6.960;2022-07-24T15:35:43;3.45;;;1.40;;